sensor_id;sensor_type;location;lat;lon;timestamp;pressure;altitude;pressure_sealevel;temperature;humidity
70745;BME280;59284;31.390;34.904;2022-12-20T05:40:56;95016.25;;;16.39;100.00
70745;BME280;59284;31.390;34.904;2022-12-20T05:43:21;95014.53;;;15.93;100.00
70745;BME280;59284;31.390;34.904;2022-12-20T05:46:11;95016.09;;;16.14;100.00
70745;BME280;59284;31.390;34.904;2022-12-20T05:48:47;95018.06;;;15.97;100.00
70745;BME280;59284;31.390;34.904;2022-12-20T05:51:15;95012.09;;;16.38;100.00
70745;BME280;59284;31.390;34.904;2022-12-20T05:53:41;95009.81;;;16.36;100.00
70745;BME280;59284;31.390;34.904;2022-12-20T05:56:06;95018.44;;;16.07;100.00
70745;BME280;59284;31.390;34.904;2022-12-20T05:58:32;95018.69;;;15.94;100.00
70745;BME280;59284;31.390;34.904;2022-12-20T06:01:03;95022.03;;;16.24;100.00
70745;BME280;59284;31.390;34.904;2022-12-20T06:03:29;95033.03;;;16.17;100.00
70745;BME280;59284;31.390;34.904;2022-12-20T06:05:56;95029.22;;;16.64;100.00
70745;BME280;59284;31.390;34.904;2022-12-20T06:08:22;95033.09;;;16.58;100.00
70745;BME280;59284;31.390;34.904;2022-12-20T06:10:49;95037.56;;;16.58;100.00
70745;BME280;59284;31.390;34.904;2022-12-20T06:13:15;95042.00;;;16.37;100.00
70745;BME280;59284;31.390;34.904;2022-12-20T06:15:41;95032.63;;;16.77;100.00
70745;BME280;59284;31.390;34.904;2022-12-20T06:18:07;95033.47;;;16.90;100.00
70745;BME280;59284;31.390;34.904;2022-12-20T06:20:34;95044.31;;;17.00;100.00
70745;BME280;59284;31.390;34.904;2022-12-20T06:23:00;95040.53;;;17.10;100.00
70745;BME280;59284;31.390;34.904;2022-12-20T06:25:26;95035.28;;;17.54;100.00
70745;BME280;59284;31.390;34.904;2022-12-20T06:27:54;95029.63;;;17.20;100.00
70745;BME280;59284;31.390;34.904;2022-12-20T06:30:20;95032.47;;;17.27;100.00
70745;BME280;59284;31.390;34.904;2022-12-20T06:32:46;95039.56;;;17.14;100.00
70745;BME280;59284;31.390;34.904;2022-12-20T06:35:11;95039.94;;;17.04;100.00
70745;BME280;59284;31.390;34.904;2022-12-20T06:37:40;95027.84;;;17.44;100.00
70745;BME280;59284;31.390;34.904;2022-12-20T06:40:10;95034.66;;;17.25;100.00
70745;BME280;59284;31.390;34.904;2022-12-20T06:42:37;95043.25;;;17.13;100.00
70745;BME280;59284;31.390;34.904;2022-12-20T06:45:03;95032.31;;;17.44;100.00
70745;BME280;59284;31.390;34.904;2022-12-20T06:47:29;95026.06;;;17.93;100.00
70745;BME280;59284;31.390;34.904;2022-12-20T06:49:55;95027.25;;;17.72;100.00
70745;BME280;59284;31.390;34.904;2022-12-20T06:52:21;95031.59;;;17.56;100.00
70745;BME280;59284;31.390;34.904;2022-12-20T06:54:46;95030.09;;;17.91;100.00
70745;BME280;59284;31.390;34.904;2022-12-20T06:57:12;95031.19;;;18.02;100.00
70745;BME280;59284;31.390;34.904;2022-12-20T06:59:38;95036.00;;;17.88;100.00
70745;BME280;59284;31.390;34.904;2022-12-20T07:02:03;95039.16;;;18.17;100.00
70745;BME280;59284;31.390;34.904;2022-12-20T07:04:29;95035.06;;;19.98;100.00
70745;BME280;59284;31.390;34.904;2022-12-20T07:06:54;95016.31;;;23.80;100.00
70745;BME280;59284;31.390;34.904;2022-12-20T07:09:21;95024.53;;;22.65;100.00
70745;BME280;59284;31.390;34.904;2022-12-20T07:11:47;95023.88;;;23.04;100.00
70745;BME280;59284;31.390;34.904;2022-12-20T07:14:13;95024.88;;;21.65;100.00
70745;BME280;59284;31.390;34.904;2022-12-20T07:16:38;95021.66;;;23.10;100.00
70745;BME280;59284;31.390;34.904;2022-12-20T07:19:10;95025.50;;;23.16;100.00
70745;BME280;59284;31.390;34.904;2022-12-20T07:21:36;95021.28;;;23.85;100.00
70745;BME280;59284;31.390;34.904;2022-12-20T07:24:02;95030.47;;;22.88;100.00
70745;BME280;59284;31.390;34.904;2022-12-20T07:26:27;95035.50;;;20.70;100.00
70745;BME280;59284;31.390;34.904;2022-12-20T07:28:53;95037.94;;;20.09;100.00
70745;BME280;59284;31.390;34.904;2022-12-20T07:31:19;95036.66;;;19.87;100.00
70745;BME280;59284;31.390;34.904;2022-12-20T07:33:45;95032.47;;;19.12;100.00
70745;BME280;59284;31.390;34.904;2022-12-20T07:36:11;95038.13;;;18.70;100.00
70745;BME280;59284;31.390;34.904;2022-12-20T07:38:37;95040.50;;;18.75;100.00
70745;BME280;59284;31.390;34.904;2022-12-20T07:41:10;95026.06;;;19.68;100.00
70745;BME280;59284;31.390;34.904;2022-12-20T07:43:36;95023.41;;;19.99;100.00
70745;BME280;59284;31.390;34.904;2022-12-20T07:46:03;95011.41;;;22.46;100.00
70745;BME280;59284;31.390;34.904;2022-12-20T07:48:30;95007.69;;;24.48;100.00
70745;BME280;59284;31.390;34.904;2022-12-20T07:51:05;95008.34;;;24.27;100.00
70745;BME280;59284;31.390;34.904;2022-12-20T07:53:33;94999.78;;;25.94;100.00
70745;BME280;59284;31.390;34.904;2022-12-20T07:56:01;94994.84;;;25.57;100.00
70745;BME280;59284;31.390;34.904;2022-12-20T07:58:29;95009.09;;;24.96;100.00
70745;BME280;59284;31.390;34.904;2022-12-20T08:00:57;94990.31;;;26.11;100.00
70745;BME280;59284;31.390;34.904;2022-12-20T08:03:25;94998.66;;;26.27;100.00
70745;BME280;59284;31.390;34.904;2022-12-20T08:05:55;94990.63;;;27.38;100.00
70745;BME280;59284;31.390;34.904;2022-12-20T08:08:23;94992.72;;;27.02;100.00
70745;BME280;59284;31.390;34.904;2022-12-20T08:10:49;94989.91;;;25.73;100.00
70745;BME280;59284;31.390;34.904;2022-12-20T08:13:15;94988.22;;;28.09;100.00
70745;BME280;59284;31.390;34.904;2022-12-20T08:15:43;95001.81;;;27.12;100.00
70745;BME280;59284;31.390;34.904;2022-12-20T08:18:08;94996.53;;;26.98;100.00
70745;BME280;59284;31.390;34.904;2022-12-20T08:20:34;94992.63;;;28.97;100.00
70745;BME280;59284;31.390;34.904;2022-12-20T08:23:02;94984.94;;;29.03;100.00
70745;BME280;59284;31.390;34.904;2022-12-20T08:25:29;94992.41;;;26.83;100.00
70745;BME280;59284;31.390;34.904;2022-12-20T08:27:54;94978.44;;;27.92;100.00
70745;BME280;59284;31.390;34.904;2022-12-20T08:30:20;94980.78;;;25.74;100.00
70745;BME280;59284;31.390;34.904;2022-12-20T08:32:46;94980.00;;;27.31;100.00
70745;BME280;59284;31.390;34.904;2022-12-20T08:35:12;94979.78;;;28.18;100.00
70745;BME280;59284;31.390;34.904;2022-12-20T08:37:38;94984.19;;;26.07;100.00
70745;BME280;59284;31.390;34.904;2022-12-20T08:40:05;94976.38;;;29.18;100.00
70745;BME280;59284;31.390;34.904;2022-12-20T08:42:32;94983.06;;;25.79;100.00
70745;BME280;59284;31.390;34.904;2022-12-20T08:44:57;94970.56;;;27.74;100.00
70745;BME280;59284;31.390;34.904;2022-12-20T08:47:23;94961.38;;;29.51;100.00
70745;BME280;59284;31.390;34.904;2022-12-20T08:49:49;94943.00;;;31.21;100.00
70745;BME280;59284;31.390;34.904;2022-12-20T08:52:14;94970.00;;;28.01;100.00
70745;BME280;59284;31.390;34.904;2022-12-20T08:54:40;94958.50;;;29.39;100.00
70745;BME280;59284;31.390;34.904;2022-12-20T08:57:05;94939.53;;;32.33;100.00
70745;BME280;59284;31.390;34.904;2022-12-20T08:59:31;94957.13;;;26.58;100.00
70745;BME280;59284;31.390;34.904;2022-12-20T09:01:57;94957.06;;;26.72;100.00
70745;BME280;59284;31.390;34.904;2022-12-20T09:04:22;94932.22;;;30.49;100.00
70745;BME280;59284;31.390;34.904;2022-12-20T09:06:48;94951.16;;;28.18;100.00
70745;BME280;59284;31.390;34.904;2022-12-20T09:09:13;94928.56;;;30.79;100.00
70745;BME280;59284;31.390;34.904;2022-12-20T09:11:40;94924.91;;;30.11;100.00
70745;BME280;59284;31.390;34.904;2022-12-20T09:14:07;94931.34;;;28.19;100.00
70745;BME280;59284;31.390;34.904;2022-12-20T09:16:33;94919.63;;;31.05;100.00
70745;BME280;59284;31.390;34.904;2022-12-20T09:19:01;94919.03;;;30.59;100.00
70745;BME280;59284;31.390;34.904;2022-12-20T09:21:27;94917.69;;;30.86;100.00
70745;BME280;59284;31.390;34.904;2022-12-20T09:23:54;94915.00;;;29.61;100.00
70745;BME280;59284;31.390;34.904;2022-12-20T09:26:21;94922.72;;;29.82;100.00
70745;BME280;59284;31.390;34.904;2022-12-20T09:28:48;94904.69;;;31.04;100.00
70745;BME280;59284;31.390;34.904;2022-12-20T09:31:19;94905.44;;;32.18;100.00
70745;BME280;59284;31.390;34.904;2022-12-20T09:33:45;94897.53;;;31.50;100.00
70745;BME280;59284;31.390;34.904;2022-12-20T09:36:13;94912.00;;;30.65;100.00
70745;BME280;59284;31.390;34.904;2022-12-20T09:38:39;94915.06;;;27.66;100.00
70745;BME280;59284;31.390;34.904;2022-12-20T09:41:06;94887.72;;;31.75;100.00
70745;BME280;59284;31.390;34.904;2022-12-20T09:43:33;94894.19;;;31.78;100.00
70745;BME280;59284;31.390;34.904;2022-12-20T09:46:00;94889.69;;;31.43;100.00
70745;BME280;59284;31.390;34.904;2022-12-20T09:48:36;94881.44;;;31.66;100.00
70745;BME280;59284;31.390;34.904;2022-12-20T09:56:48;94882.91;;;30.67;100.00
70745;BME280;59284;31.390;34.904;2022-12-20T09:59:18;94875.84;;;29.74;100.00
70745;BME280;59284;31.390;34.904;2022-12-20T10:01:46;94872.91;;;30.31;100.00
70745;BME280;59284;31.390;34.904;2022-12-20T10:04:26;94877.13;;;29.90;100.00
70745;BME280;59284;31.390;34.904;2022-12-20T10:07:30;94870.41;;;29.81;100.00
70745;BME280;59284;31.390;34.904;2022-12-20T10:16:23;94871.31;;;28.34;100.00
70745;BME280;59284;31.390;34.904;2022-12-20T10:19:07;94848.28;;;30.40;100.00
70745;BME280;59284;31.390;34.904;2022-12-20T10:24:29;94851.84;;;30.14;100.00
70745;BME280;59284;31.390;34.904;2022-12-20T10:26:57;94839.25;;;31.54;100.00
70745;BME280;59284;31.390;34.904;2022-12-20T10:29:26;94836.91;;;29.27;100.00
70745;BME280;59284;31.390;34.904;2022-12-20T10:31:58;94837.59;;;27.43;100.00
70745;BME280;59284;31.390;34.904;2022-12-20T10:34:25;94818.22;;;30.68;100.00
70745;BME280;59284;31.390;34.904;2022-12-20T10:37:10;94818.34;;;30.45;100.00
70745;BME280;59284;31.390;34.904;2022-12-20T10:39:42;94819.13;;;30.97;100.00
70745;BME280;59284;31.390;34.904;2022-12-20T10:42:36;94810.19;;;34.60;100.00
70745;BME280;59284;31.390;34.904;2022-12-20T10:45:56;94831.00;;;29.82;100.00
70745;BME280;59284;31.390;34.904;2022-12-20T10:47:50;94827.41;;;29.26;100.00
70745;BME280;59284;31.390;34.904;2022-12-20T10:50:21;94813.06;;;31.42;100.00
70745;BME280;59284;31.390;34.904;2022-12-20T10:55:36;94821.66;;;30.69;100.00
70745;BME280;59284;31.390;34.904;2022-12-20T11:00:36;94797.53;;;35.27;100.00
70745;BME280;59284;31.390;34.904;2022-12-20T11:03:17;94801.72;;;31.05;100.00
70745;BME280;59284;31.390;34.904;2022-12-20T11:05:55;94797.31;;;33.43;100.00
70745;BME280;59284;31.390;34.904;2022-12-20T11:08:21;94799.25;;;33.55;100.00
70745;BME280;59284;31.390;34.904;2022-12-20T11:10:49;94800.31;;;29.24;100.00
70745;BME280;59284;31.390;34.904;2022-12-20T11:13:23;94791.72;;;30.38;100.00
70745;BME280;59284;31.390;34.904;2022-12-20T11:15:55;94793.72;;;28.82;100.00
70745;BME280;59284;31.390;34.904;2022-12-20T11:18:46;94783.69;;;30.38;100.00
70745;BME280;59284;31.390;34.904;2022-12-20T11:24:00;94794.94;;;28.47;100.00
70745;BME280;59284;31.390;34.904;2022-12-20T11:32:46;94780.63;;;31.97;100.00
70745;BME280;59284;31.390;34.904;2022-12-20T11:44:16;94770.94;;;33.29;100.00
70745;BME280;59284;31.390;34.904;2022-12-20T11:47:27;94777.63;;;33.12;100.00
70745;BME280;59284;31.390;34.904;2022-12-20T11:55:43;94777.53;;;31.99;100.00
70745;BME280;59284;31.390;34.904;2022-12-20T12:00:43;94780.75;;;31.77;100.00
70745;BME280;59284;31.390;34.904;2022-12-20T12:03:35;94782.03;;;31.28;100.00
70745;BME280;59284;31.390;34.904;2022-12-20T12:06:19;94785.69;;;30.14;100.00
70745;BME280;59284;31.390;34.904;2022-12-20T12:08:54;94787.34;;;29.46;100.00
70745;BME280;59284;31.390;34.904;2022-12-20T12:11:26;94803.78;;;27.40;100.00
70745;BME280;59284;31.390;34.904;2022-12-20T12:13:54;94809.69;;;23.84;100.00
70745;BME280;59284;31.390;34.904;2022-12-20T12:16:26;94814.84;;;23.04;100.00
70745;BME280;59284;31.390;34.904;2022-12-20T12:18:53;94808.47;;;22.32;100.00
70745;BME280;59284;31.390;34.904;2022-12-20T12:21:22;94814.28;;;22.15;100.00
70745;BME280;59284;31.390;34.904;2022-12-20T12:28:54;94796.94;;;27.72;100.00
70745;BME280;59284;31.390;34.904;2022-12-20T12:32:15;94786.44;;;29.06;100.00
70745;BME280;59284;31.390;34.904;2022-12-20T12:35:11;94781.03;;;30.38;100.00
70745;BME280;59284;31.390;34.904;2022-12-20T12:40:56;94771.25;;;30.28;100.00
70745;BME280;59284;31.390;34.904;2022-12-20T12:46:14;94781.72;;;27.32;100.00
70745;BME280;59284;31.390;34.904;2022-12-20T12:48:57;94791.50;;;26.39;100.00
70745;BME280;59284;31.390;34.904;2022-12-20T12:51:31;94790.22;;;26.62;100.00
70745;BME280;59284;31.390;34.904;2022-12-20T12:54:36;94789.91;;;25.24;100.00
70745;BME280;59284;31.390;34.904;2022-12-20T12:57:14;94787.16;;;26.67;100.00
70745;BME280;59284;31.390;34.904;2022-12-20T13:00:02;94795.00;;;26.91;100.00
70745;BME280;59284;31.390;34.904;2022-12-20T13:02:33;94793.09;;;26.26;100.00
70745;BME280;59284;31.390;34.904;2022-12-20T13:18:19;94799.63;;;24.10;100.00
70745;BME280;59284;31.390;34.904;2022-12-20T13:32:52;94783.38;;;25.81;100.00
70745;BME280;59284;31.390;34.904;2022-12-20T13:37:54;94800.03;;;23.51;100.00
70745;BME280;59284;31.390;34.904;2022-12-20T13:40:35;94800.75;;;23.41;100.00
70745;BME280;59284;31.390;34.904;2022-12-20T13:43:27;94803.00;;;24.07;100.00
70745;BME280;59284;31.390;34.904;2022-12-20T13:46:00;94788.81;;;25.07;100.00
70745;BME280;59284;31.390;34.904;2022-12-20T13:51:16;94808.78;;;23.55;100.00
70745;BME280;59284;31.390;34.904;2022-12-20T13:56:54;94808.56;;;23.27;100.00
70745;BME280;59284;31.390;34.904;2022-12-20T13:59:30;94810.19;;;22.17;100.00
70745;BME280;59284;31.390;34.904;2022-12-20T14:02:03;94814.13;;;22.34;100.00
70745;BME280;59284;31.390;34.904;2022-12-20T14:04:42;94813.69;;;21.13;100.00
70745;BME280;59284;31.390;34.904;2022-12-20T14:07:13;94809.53;;;21.38;100.00
70745;BME280;59284;31.390;34.904;2022-12-20T14:09:46;94821.91;;;20.44;100.00
70745;BME280;59284;31.390;34.904;2022-12-20T14:12:19;94821.00;;;20.36;100.00
70745;BME280;59284;31.390;34.904;2022-12-20T14:14:47;94822.41;;;20.72;100.00
70745;BME280;59284;31.390;34.904;2022-12-20T14:17:32;94820.78;;;20.45;100.00
70745;BME280;59284;31.390;34.904;2022-12-20T14:20:14;94825.00;;;19.92;100.00
70745;BME280;59284;31.390;34.904;2022-12-20T14:23:05;94839.59;;;19.20;100.00
70745;BME280;59284;31.390;34.904;2022-12-20T14:25:51;94830.00;;;18.96;100.00
70745;BME280;59284;31.390;34.904;2022-12-20T14:31:19;94839.66;;;18.33;100.00
70745;BME280;59284;31.390;34.904;2022-12-20T14:33:59;94837.31;;;17.88;100.00
70745;BME280;59284;31.390;34.904;2022-12-20T14:36:31;94838.59;;;17.94;100.00
70745;BME280;59284;31.390;34.904;2022-12-20T14:39:29;94842.25;;;17.78;100.00
70745;BME280;59284;31.390;34.904;2022-12-20T14:48:03;94850.16;;;17.53;100.00
70745;BME280;59284;31.390;34.904;2022-12-20T14:50:37;94846.06;;;17.80;100.00
70745;BME280;59284;31.390;34.904;2022-12-20T14:53:31;94844.72;;;17.59;100.00
70745;BME280;59284;31.390;34.904;2022-12-20T14:55:58;94857.16;;;17.25;100.00
70745;BME280;59284;31.390;34.904;2022-12-20T15:03:30;94858.34;;;17.16;100.00
70745;BME280;59284;31.390;34.904;2022-12-20T15:09:04;94866.09;;;17.00;100.00
70745;BME280;59284;31.390;34.904;2022-12-20T15:11:33;94870.09;;;16.85;100.00
70745;BME280;59284;31.390;34.904;2022-12-20T15:13:59;94869.59;;;17.04;100.00
70745;BME280;59284;31.390;34.904;2022-12-20T15:16:31;94876.69;;;16.92;100.00
70745;BME280;59284;31.390;34.904;2022-12-20T15:18:59;94880.50;;;17.06;100.00
70745;BME280;59284;31.390;34.904;2022-12-20T15:21:29;94883.13;;;17.06;100.00
70745;BME280;59284;31.390;34.904;2022-12-20T15:24:00;94880.69;;;16.77;100.00
70745;BME280;59284;31.390;34.904;2022-12-20T15:26:27;94891.47;;;16.63;100.00
70745;BME280;59284;31.390;34.904;2022-12-20T15:28:54;94884.88;;;17.02;100.00
70745;BME280;59284;31.390;34.904;2022-12-20T15:31:21;94889.84;;;16.71;100.00
70745;BME280;59284;31.390;34.904;2022-12-20T15:33:50;94896.16;;;16.70;100.00
70745;BME280;59284;31.390;34.904;2022-12-20T15:36:27;94902.44;;;16.90;100.00
70745;BME280;59284;31.390;34.904;2022-12-20T15:38:54;94898.53;;;16.63;100.00
70745;BME280;59284;31.390;34.904;2022-12-20T15:41:30;94903.38;;;16.73;100.00
70745;BME280;59284;31.390;34.904;2022-12-20T15:44:06;94912.22;;;16.48;100.00
70745;BME280;59284;31.390;34.904;2022-12-20T15:46:43;94912.06;;;16.65;100.00
70745;BME280;59284;31.390;34.904;2022-12-20T15:49:20;94922.69;;;16.48;100.00
70745;BME280;59284;31.390;34.904;2022-12-20T15:51:48;94908.34;;;16.54;100.00
70745;BME280;59284;31.390;34.904;2022-12-20T15:54:29;94920.03;;;16.36;100.00
70745;BME280;59284;31.390;34.904;2022-12-20T15:56:57;94916.53;;;16.32;100.00
70745;BME280;59284;31.390;34.904;2022-12-20T15:59:23;94922.63;;;16.36;100.00
70745;BME280;59284;31.390;34.904;2022-12-20T16:01:52;94921.81;;;16.44;100.00
70745;BME280;59284;31.390;34.904;2022-12-20T16:04:22;94919.84;;;16.41;100.00
70745;BME280;59284;31.390;34.904;2022-12-20T16:06:50;94922.47;;;16.20;100.00
70745;BME280;59284;31.390;34.904;2022-12-20T16:09:23;94923.25;;;16.21;100.00
70745;BME280;59284;31.390;34.904;2022-12-20T16:11:50;94918.97;;;16.16;100.00
70745;BME280;59284;31.390;34.904;2022-12-20T16:14:20;94920.03;;;16.36;100.00
70745;BME280;59284;31.390;34.904;2022-12-20T16:16:46;94922.31;;;16.16;100.00
70745;BME280;59284;31.390;34.904;2022-12-20T16:19:19;94913.97;;;16.02;100.00
70745;BME280;59284;31.390;34.904;2022-12-20T16:21:50;94917.75;;;16.13;100.00
70745;BME280;59284;31.390;34.904;2022-12-20T16:24:20;94912.16;;;16.36;100.00
70745;BME280;59284;31.390;34.904;2022-12-20T16:26:48;94913.56;;;16.33;100.00
70745;BME280;59284;31.390;34.904;2022-12-20T16:29:15;94917.09;;;15.96;100.00
70745;BME280;59284;31.390;34.904;2022-12-20T16:31:41;94919.19;;;16.44;100.00
70745;BME280;59284;31.390;34.904;2022-12-20T16:34:15;94919.84;;;16.20;100.00
70745;BME280;59284;31.390;34.904;2022-12-20T16:36:42;94918.13;;;16.03;100.00
70745;BME280;59284;31.390;34.904;2022-12-20T16:39:07;94927.81;;;16.03;100.00
70745;BME280;59284;31.390;34.904;2022-12-20T16:41:34;94921.25;;;15.97;100.00
70745;BME280;59284;31.390;34.904;2022-12-20T16:44:01;94921.69;;;15.99;100.00
70745;BME280;59284;31.390;34.904;2022-12-20T16:46:30;94915.75;;;16.10;100.00
70745;BME280;59284;31.390;34.904;2022-12-20T16:48:57;94917.09;;;16.16;100.00
70745;BME280;59284;31.390;34.904;2022-12-20T16:51:31;94917.31;;;16.11;100.00
70745;BME280;59284;31.390;34.904;2022-12-20T16:54:04;94918.69;;;15.88;100.00
70745;BME280;59284;31.390;34.904;2022-12-20T16:56:31;94918.19;;;15.95;100.00
70745;BME280;59284;31.390;34.904;2022-12-20T16:58:57;94919.75;;;15.87;100.00
70745;BME280;59284;31.390;34.904;2022-12-20T17:01:27;94921.94;;;15.85;100.00
70745;BME280;59284;31.390;34.904;2022-12-20T17:03:54;94912.09;;;15.82;100.00
70745;BME280;59284;31.390;34.904;2022-12-20T17:06:20;94919.75;;;15.87;100.00
70745;BME280;59284;31.390;34.904;2022-12-20T17:08:46;94927.09;;;15.73;100.00
70745;BME280;59284;31.390;34.904;2022-12-20T17:11:22;94923.03;;;16.05;100.00
70745;BME280;59284;31.390;34.904;2022-12-20T17:13:50;94922.91;;;16.01;100.00
70745;BME280;59284;31.390;34.904;2022-12-20T17:16:16;94924.03;;;15.71;100.00
70745;BME280;59284;31.390;34.904;2022-12-20T17:18:47;94937.94;;;15.63;100.00
70745;BME280;59284;31.390;34.904;2022-12-20T17:21:23;94931.88;;;15.71;100.00
70745;BME280;59284;31.390;34.904;2022-12-20T17:23:56;94931.09;;;15.71;100.00
70745;BME280;59284;31.390;34.904;2022-12-20T17:26:39;94932.53;;;15.60;100.00
70745;BME280;59284;31.390;34.904;2022-12-20T17:29:05;94925.69;;;15.38;100.00
70745;BME280;59284;31.390;34.904;2022-12-20T17:31:33;94929.47;;;15.87;100.00
70745;BME280;59284;31.390;34.904;2022-12-20T17:34:08;94928.81;;;15.69;100.00
70745;BME280;59284;31.390;34.904;2022-12-20T17:36:39;94928.53;;;15.62;100.00
70745;BME280;59284;31.390;34.904;2022-12-20T17:39:05;94928.09;;;15.60;100.00
70745;BME280;59284;31.390;34.904;2022-12-20T17:41:32;94925.00;;;15.87;100.00
70745;BME280;59284;31.390;34.904;2022-12-20T17:43:59;94921.75;;;15.61;100.00
70745;BME280;59284;31.390;34.904;2022-12-20T17:46:27;94930.56;;;15.57;100.00
70745;BME280;59284;31.390;34.904;2022-12-20T17:48:53;94922.44;;;15.79;100.00
70745;BME280;59284;31.390;34.904;2022-12-20T17:51:28;94923.28;;;15.91;100.00
70745;BME280;59284;31.390;34.904;2022-12-20T17:53:56;94920.81;;;15.95;100.00
70745;BME280;59284;31.390;34.904;2022-12-20T17:56:27;94926.72;;;15.83;100.00
70745;BME280;59284;31.390;34.904;2022-12-20T17:58:57;94924.88;;;15.84;100.00
70745;BME280;59284;31.390;34.904;2022-12-20T18:01:25;94928.69;;;15.86;100.00
70745;BME280;59284;31.390;34.904;2022-12-20T18:03:53;94928.31;;;15.76;100.00
70745;BME280;59284;31.390;34.904;2022-12-20T18:06:20;94930.53;;;15.65;100.00
70745;BME280;59284;31.390;34.904;2022-12-20T18:08:57;94929.78;;;15.85;100.00
70745;BME280;59284;31.390;34.904;2022-12-20T18:11:25;94944.59;;;15.43;100.00
70745;BME280;59284;31.390;34.904;2022-12-20T18:13:54;94941.44;;;15.67;100.00
70745;BME280;59284;31.390;34.904;2022-12-20T18:16:23;94935.53;;;15.79;100.00
70745;BME280;59284;31.390;34.904;2022-12-20T18:18:51;94939.94;;;15.58;100.00
70745;BME280;59284;31.390;34.904;2022-12-20T18:21:22;94934.81;;;15.70;100.00
70745;BME280;59284;31.390;34.904;2022-12-20T18:23:48;94937.94;;;15.55;100.00
70745;BME280;59284;31.390;34.904;2022-12-20T18:26:23;94946.44;;;15.52;100.00
70745;BME280;59284;31.390;34.904;2022-12-20T18:28:53;94939.75;;;15.63;100.00
70745;BME280;59284;31.390;34.904;2022-12-20T18:31:21;94936.44;;;15.45;100.00
70745;BME280;59284;31.390;34.904;2022-12-20T18:33:47;94941.13;;;15.31;100.00
70745;BME280;59284;31.390;34.904;2022-12-20T18:36:15;94946.59;;;15.38;100.00
70745;BME280;59284;31.390;34.904;2022-12-20T18:38:43;94941.84;;;15.49;100.00
70745;BME280;59284;31.390;34.904;2022-12-20T18:41:12;94938.56;;;15.14;100.00
70745;BME280;59284;31.390;34.904;2022-12-20T18:43:40;94936.97;;;15.30;100.00
70745;BME280;59284;31.390;34.904;2022-12-20T18:46:11;94938.75;;;15.38;100.00
70745;BME280;59284;31.390;34.904;2022-12-20T18:48:40;94937.94;;;15.55;100.00
70745;BME280;59284;31.390;34.904;2022-12-20T18:51:14;94939.06;;;15.45;100.00
70745;BME280;59284;31.390;34.904;2022-12-20T18:53:44;94946.31;;;15.39;100.00
70745;BME280;59284;31.390;34.904;2022-12-20T18:56:13;94948.03;;;15.27;100.00
70745;BME280;59284;31.390;34.904;2022-12-20T18:58:40;94955.13;;;15.18;100.00
70745;BME280;59284;31.390;34.904;2022-12-20T19:01:17;94948.97;;;15.31;100.00
70745;BME280;59284;31.390;34.904;2022-12-20T19:03:44;94957.28;;;15.16;100.00
70745;BME280;59284;31.390;34.904;2022-12-20T19:06:10;94959.16;;;15.07;100.00
70745;BME280;59284;31.390;34.904;2022-12-20T19:08:37;94958.97;;;15.20;100.00
70745;BME280;59284;31.390;34.904;2022-12-20T19:11:15;94963.38;;;15.37;100.00
70745;BME280;59284;31.390;34.904;2022-12-20T19:13:41;94953.25;;;15.35;100.00
70745;BME280;59284;31.390;34.904;2022-12-20T19:16:14;94954.44;;;15.38;100.00
70745;BME280;59284;31.390;34.904;2022-12-20T19:18:41;94961.31;;;15.13;100.00
70745;BME280;59284;31.390;34.904;2022-12-20T19:21:12;94951.91;;;15.21;100.00
70745;BME280;59284;31.390;34.904;2022-12-20T19:23:39;94949.97;;;15.01;100.00
70745;BME280;59284;31.390;34.904;2022-12-20T19:26:10;94951.75;;;15.26;100.00
70745;BME280;59284;31.390;34.904;2022-12-20T19:28:37;94947.75;;;15.20;100.00
70745;BME280;59284;31.390;34.904;2022-12-20T19:31:16;94947.63;;;15.16;100.00
70745;BME280;59284;31.390;34.904;2022-12-20T19:33:45;94958.41;;;15.15;100.00
70745;BME280;59284;31.390;34.904;2022-12-20T19:36:16;94951.63;;;15.14;100.00
70745;BME280;59284;31.390;34.904;2022-12-20T19:38:48;94952.34;;;15.23;100.00
70745;BME280;59284;31.390;34.904;2022-12-20T19:41:16;94951.94;;;15.12;100.00
70745;BME280;59284;31.390;34.904;2022-12-20T19:43:43;94943.69;;;14.93;100.00
70745;BME280;59284;31.390;34.904;2022-12-20T19:46:09;94944.56;;;15.06;100.00
70745;BME280;59284;31.390;34.904;2022-12-20T19:48:35;94953.16;;;15.06;100.00
70745;BME280;59284;31.390;34.904;2022-12-20T19:53:29;94951.19;;;14.95;100.00
70745;BME280;59284;31.390;34.904;2022-12-20T19:55:55;94948.31;;;14.96;100.00
70745;BME280;59284;31.390;34.904;2022-12-20T19:58:21;94958.59;;;14.93;100.00
70745;BME280;59284;31.390;34.904;2022-12-20T20:00:47;94956.59;;;14.90;100.00
70745;BME280;59284;31.390;34.904;2022-12-20T20:03:14;94956.44;;;14.95;100.00
70745;BME280;59284;31.390;34.904;2022-12-20T20:05:39;94952.00;;;14.87;100.00
70745;BME280;59284;31.390;34.904;2022-12-20T20:08:06;94945.56;;;14.84;100.00
70745;BME280;59284;31.390;34.904;2022-12-20T20:10:32;94957.09;;;14.66;100.00
70745;BME280;59284;31.390;34.904;2022-12-20T20:12:58;94949.56;;;14.73;100.00
70745;BME280;59284;31.390;34.904;2022-12-20T20:15:23;94944.63;;;14.71;100.00
70745;BME280;59284;31.390;34.904;2022-12-20T20:17:50;94946.19;;;14.72;100.00
70745;BME280;59284;31.390;34.904;2022-12-20T20:20:15;94955.88;;;14.72;100.00
70745;BME280;59284;31.390;34.904;2022-12-20T20:22:41;94950.66;;;14.63;100.00
70745;BME280;59284;31.390;34.904;2022-12-20T20:25:09;94948.34;;;14.70;100.00
70745;BME280;59284;31.390;34.904;2022-12-20T20:27:35;94946.34;;;14.67;100.00